Time;durP1;ratioP1;P1;durP2;ratioP2;P2;SDS_P1;SDS_P2;PMS_P1;PMS_P2;Temp;Humidity;BMP_temperature;BMP_pressure;BME280_temperature;BME280_humidity;BME280_pressure;Samples;Min_cycle;Max_cycle;Signal;HPM_P1;HPM_P2
2024/01/01 00:01:43;;;;;;;8.20;3.80;;;;;;;;;;5073688;28;20223;-48
2024/01/01 00:04:09;;;;;;;8.90;4.00;;;;;;;;;;5073486;28;20237;-49
2024/01/01 00:06:35;;;;;;;7.23;4.10;;;;;;;;;;5073556;28;20210;-48
2024/01/01 00:09:03;;;;;;;7.27;4.03;;;;;;;;;;5073288;28;20297;-49
2024/01/01 00:11:29;;;;;;;6.80;4.00;;;;;;;;;;5073534;28;20195;-49
2024/01/01 00:13:55;;;;;;;8.17;4.30;;;;;;;;;;5073246;28;20294;-48
2024/01/01 00:16:21;;;;;;;7.30;4.77;;;;;;;;;;5071871;28;20568;-49
2024/01/01 00:18:47;;;;;;;6.30;4.40;;;;;;;;;;5073459;28;20203;-49
2024/01/01 00:21:13;;;;;;;7.40;5.10;;;;;;;;;;5072685;28;20196;-49
2024/01/01 00:23:39;;;;;;;10.57;5.43;;;;;;;;;;5073123;28;20665;-47
2024/01/01 00:26:06;;;;;;;7.83;5.00;;;;;;;;;;5073062;28;20245;-49
2024/01/01 00:28:32;;;;;;;10.80;4.93;;;;;;;;;;5073136;28;20206;-47
2024/01/01 00:30:58;;;;;;;7.80;4.60;;;;;;;;;;5073158;28;20200;-47
2024/01/01 00:33:24;;;;;;;10.50;4.97;;;;;;;;;;5072637;28;20188;-47
2024/01/01 00:35:50;;;;;;;10.73;4.83;;;;;;;;;;5072791;28;20748;-48
2024/01/01 00:38:16;;;;;;;8.17;5.10;;;;;;;;;;5072819;28;20203;-47
2024/01/01 00:40:42;;;;;;;7.63;4.63;;;;;;;;;;5072807;28;20229;-47
2024/01/01 00:43:10;;;;;;;8.20;4.90;;;;;;;;;;5072508;28;20231;-47
2024/01/01 00:45:36;;;;;;;9.13;4.93;;;;;;;;;;5072409;28;20203;-48
2024/01/01 00:48:03;;;;;;;8.17;5.90;;;;;;;;;;5072428;28;20239;-48
2024/01/01 00:50:29;;;;;;;9.00;5.40;;;;;;;;;;5072581;28;20700;-48
2024/01/01 00:52:55;;;;;;;11.37;6.00;;;;;;;;;;5072610;28;20192;-48
2024/01/01 00:55:21;;;;;;;6.47;5.50;;;;;;;;;;5072321;28;20258;-49
2024/01/01 00:57:47;;;;;;;8.93;5.83;;;;;;;;;;5072134;28;20196;-48
2024/01/01 01:00:14;;;;;;;8.03;6.20;;;;;;;;;;5072381;28;20617;-49
2024/01/01 01:02:40;;;;;;;9.17;5.73;;;;;;;;;;5071983;28;20340;-49
2024/01/01 01:05:07;;;;;;;9.23;5.93;;;;;;;;;;5072005;28;20199;-50
2024/01/01 01:07:33;;;;;;;10.53;5.97;;;;;;;;;;5071776;28;20572;-49
2024/01/01 01:09:59;;;;;;;10.60;6.50;;;;;;;;;;5071969;28;20207;-49
2024/01/01 01:12:25;;;;;;;9.47;6.00;;;;;;;;;;5071864;28;20203;-49
2024/01/01 01:14:51;;;;;;;9.20;6.50;;;;;;;;;;5072143;28;20192;-49
2024/01/01 01:17:18;;;;;;;7.60;5.73;;;;;;;;;;5072125;28;20567;-49
2024/01/01 01:19:44;;;;;;;7.10;5.53;;;;;;;;;;5072070;28;20227;-49
2024/01/01 01:22:10;;;;;;;7.60;5.97;;;;;;;;;;5069618;28;20685;-50
2024/01/01 01:24:36;;;;;;;8.23;5.80;;;;;;;;;;5068425;28;20207;-50
2024/01/01 01:27:02;;;;;;;10.37;5.63;;;;;;;;;;5071910;28;20223;-50
2024/01/01 01:29:28;;;;;;;8.17;6.23;;;;;;;;;;5072020;28;20295;-49
2024/01/01 01:31:54;;;;;;;8.10;5.53;;;;;;;;;;5072022;28;20216;-50
2024/01/01 01:34:22;;;;;;;8.07;5.43;;;;;;;;;;5071784;28;20210;-48
2024/01/01 01:36:48;;;;;;;7.13;5.37;;;;;;;;;;5072002;28;20222;-50
2024/01/01 01:39:14;;;;;;;7.30;4.60;;;;;;;;;;5071864;28;20654;-51
2024/01/01 01:41:40;;;;;;;8.43;4.77;;;;;;;;;;5071879;28;20277;-51
2024/01/01 01:44:06;;;;;;;10.13;5.30;;;;;;;;;;5071836;28;20424;-49
2024/01/01 01:46:33;;;;;;;8.20;5.47;;;;;;;;;;5071611;28;20262;-50
2024/01/01 01:48:59;;;;;;;7.70;4.60;;;;;;;;;;5071901;28;20199;-49
2024/01/01 01:51:26;;;;;;;8.00;4.90;;;;;;;;;;5071631;28;20264;-48
2024/01/01 01:53:52;;;;;;;7.00;5.13;;;;;;;;;;5071654;28;20196;-48
2024/01/01 01:56:19;;;;;;;8.23;5.17;;;;;;;;;;5071640;28;20223;-48
2024/01/01 01:58:45;;;;;;;5.53;4.60;;;;;;;;;;5071904;28;20203;-48
2024/01/01 02:01:13;;;;;;;7.57;5.50;;;;;;;;;;5071620;28;20226;-48
2024/01/01 02:03:38;;;;;;;7.60;4.73;;;;;;;;;;5071689;28;20314;-48
2024/01/01 02:06:05;;;;;;;7.73;5.50;;;;;;;;;;5071407;28;20780;-49
2024/01/01 02:08:32;;;;;;;8.83;5.37;;;;;;;;;;5071487;28;20195;-48
2024/01/01 02:10:59;;;;;;;9.33;5.27;;;;;;;;;;5071711;28;20199;-47
2024/01/01 02:13:25;;;;;;;8.60;5.47;;;;;;;;;;5071338;28;20206;-48
2024/01/01 02:15:51;;;;;;;8.67;5.60;;;;;;;;;;5071543;28;20195;-48
2024/01/01 02:18:17;;;;;;;8.80;5.17;;;;;;;;;;5071410;28;20233;-48
2024/01/01 02:20:43;;;;;;;7.87;5.63;;;;;;;;;;5071696;28;20261;-47
2024/01/01 02:23:11;;;;;;;9.13;5.57;;;;;;;;;;5071301;28;20686;-48
2024/01/01 02:25:37;;;;;;;10.03;5.60;;;;;;;;;;5071473;28;20208;-48
2024/01/01 02:28:03;;;;;;;7.57;5.73;;;;;;;;;;5071401;28;20677;-48
2024/01/01 02:30:29;;;;;;;9.17;5.40;;;;;;;;;;5071345;28;20252;-47
2024/01/01 02:32:55;;;;;;;7.60;4.70;;;;;;;;;;5071259;28;20199;-48
2024/01/01 02:35:21;;;;;;;10.23;6.27;;;;;;;;;;5071222;28;20291;-49
2024/01/01 02:37:47;;;;;;;8.93;6.03;;;;;;;;;;5071423;28;20199;-48
2024/01/01 02:40:14;;;;;;;10.03;5.47;;;;;;;;;;5071314;28;20583;-48
2024/01/01 02:42:40;;;;;;;9.90;5.73;;;;;;;;;;5071201;28;20314;-48
2024/01/01 02:45:07;;;;;;;10.10;5.33;;;;;;;;;;5071189;28;20226;-48
2024/01/01 02:47:35;;;;;;;7.70;5.07;;;;;;;;;;5070976;28;20275;-48
2024/01/01 02:50:01;;;;;;;8.07;5.10;;;;;;;;;;5071256;28;20218;-48
2024/01/01 02:52:27;;;;;;;8.67;5.40;;;;;;;;;;5071021;28;20227;-48
2024/01/01 02:54:53;;;;;;;7.63;5.20;;;;;;;;;;5071107;28;20202;-48
2024/01/01 02:57:20;;;;;;;8.13;5.10;;;;;;;;;;5070940;28;20196;-48
2024/01/01 02:59:46;;;;;;;6.70;5.03;;;;;;;;;;5071180;28;20207;-49
2024/01/01 03:02:13;;;;;;;6.67;4.60;;;;;;;;;;5070980;28;20212;-48
2024/01/01 03:04:39;;;;;;;8.83;4.97;;;;;;;;;;5070917;28;20238;-48
2024/01/01 03:07:05;;;;;;;12.43;5.63;;;;;;;;;;5071011;28;20630;-48
2024/01/01 03:09:31;;;;;;;9.40;4.77;;;;;;;;;;5070957;28;20203;-48
2024/01/01 03:11:57;;;;;;;7.73;4.57;;;;;;;;;;5070887;28;20202;-48
2024/01/01 03:14:24;;;;;;;7.13;4.20;;;;;;;;;;5061080;28;20192;-48
2024/01/01 03:16:50;;;;;;;10.10;5.47;;;;;;;;;;5050903;28;20228;-48
2024/01/01 03:19:17;;;;;;;8.47;4.93;;;;;;;;;;5052428;28;20200;-48
2024/01/01 03:21:43;;;;;;;8.10;4.50;;;;;;;;;;5054296;28;20192;-48
2024/01/01 03:24:09;;;;;;;9.07;4.87;;;;;;;;;;5054326;28;20250;-48
2024/01/01 03:26:35;;;;;;;8.10;4.80;;;;;;;;;;5054138;28;20200;-48
2024/01/01 03:29:01;;;;;;;8.40;5.10;;;;;;;;;;5054282;28;20204;-48
2024/01/01 03:31:28;;;;;;;9.90;5.13;;;;;;;;;;5054095;28;20596;-48
2024/01/01 03:33:54;;;;;;;10.30;5.67;;;;;;;;;;5054220;28;20200;-48
2024/01/01 03:36:20;;;;;;;9.03;5.27;;;;;;;;;;5054073;28;20196;-48
2024/01/01 03:38:46;;;;;;;8.87;5.07;;;;;;;;;;5054153;28;20651;-48
2024/01/01 03:41:12;;;;;;;9.53;5.07;;;;;;;;;;5053942;28;20209;-48
2024/01/01 03:43:38;;;;;;;6.90;5.07;;;;;;;;;;5053672;28;20467;-48
2024/01/01 03:46:04;;;;;;;11.63;5.20;;;;;;;;;;5053874;28;20201;-48
2024/01/01 03:48:31;;;;;;;8.03;4.93;;;;;;;;;;5053941;28;20275;-48
2024/01/01 03:50:57;;;;;;;7.27;4.93;;;;;;;;;;5053921;28;20291;-48
2024/01/01 03:53:23;;;;;;;9.60;5.00;;;;;;;;;;5053762;28;20280;-48
2024/01/01 03:55:49;;;;;;;8.23;4.97;;;;;;;;;;5053779;28;20667;-48
2024/01/01 03:58:15;;;;;;;7.27;4.90;;;;;;;;;;5053853;28;20231;-48
2024/01/01 04:00:41;;;;;;;10.30;5.47;;;;;;;;;;5053647;28;20204;-48
2024/01/01 04:03:07;;;;;;;7.83;4.97;;;;;;;;;;5053538;28;20598;-48
2024/01/01 04:05:35;;;;;;;7.00;4.90;;;;;;;;;;5053395;28;20893;-48
2024/01/01 04:08:01;;;;;;;8.77;5.23;;;;;;;;;;5053684;28;20287;-48
2024/01/01 04:10:27;;;;;;;8.83;5.33;;;;;;;;;;5053494;28;20288;-49
2024/01/01 04:12:53;;;;;;;7.73;5.00;;;;;;;;;;5053373;28;20880;-48
2024/01/01 04:15:18;;;;;;;9.07;5.37;;;;;;;;;;5053271;28;20208;-48
2024/01/01 04:17:44;;;;;;;11.00;5.87;;;;;;;;;;5053327;28;20306;-48
2024/01/01 04:20:11;;;;;;;11.47;4.57;;;;;;;;;;5053302;28;20612;-48
2024/01/01 04:22:40;;;;;;;7.90;4.47;;;;;;;;;;5053108;28;20224;-47
2024/01/01 04:25:07;;;;;;;10.23;4.47;;;;;;;;;;5053285;28;20287;-48
2024/01/01 04:27:33;;;;;;;8.97;4.93;;;;;;;;;;5053034;28;20280;-48
2024/01/01 04:29:59;;;;;;;6.33;4.27;;;;;;;;;;5052872;28;20357;-48
2024/01/01 04:32:24;;;;;;;7.33;4.20;;;;;;;;;;5053050;28;20196;-49
2024/01/01 04:34:51;;;;;;;10.83;4.50;;;;;;;;;;5053058;28;20262;-48
2024/01/01 04:37:17;;;;;;;11.03;4.67;;;;;;;;;;5053104;28;20200;-48
2024/01/01 04:39:44;;;;;;;6.40;4.17;;;;;;;;;;5052950;28;20192;-48
2024/01/01 04:42:10;;;;;;;6.53;4.10;;;;;;;;;;5051029;28;20243;-48
2024/01/01 04:44:36;;;;;;;8.47;4.10;;;;;;;;;;5038879;28;20667;-49
2024/01/01 04:47:02;;;;;;;7.97;3.97;;;;;;;;;;5040338;28;20242;-48
2024/01/01 04:49:28;;;;;;;7.43;3.53;;;;;;;;;;5040383;28;20601;-49
2024/01/01 04:51:54;;;;;;;5.33;3.40;;;;;;;;;;5038594;28;20195;-49
2024/01/01 04:54:21;;;;;;;10.20;4.10;;;;;;;;;;5038707;28;20203;-49
2024/01/01 04:56:48;;;;;;;7.47;3.90;;;;;;;;;;5039999;28;20200;-48
2024/01/01 04:59:14;;;;;;;11.70;3.80;;;;;;;;;;5038850;28;20196;-49
2024/01/01 05:01:40;;;;;;;6.67;3.30;;;;;;;;;;5038165;28;20769;-48
2024/01/01 05:04:06;;;;;;;7.33;3.63;;;;;;;;;;5039848;28;20196;-48
2024/01/01 05:06:32;;;;;;;5.97;3.60;;;;;;;;;;5039531;28;20571;-48
2024/01/01 05:08:58;;;;;;;6.43;3.90;;;;;;;;;;5039658;28;20200;-48
2024/01/01 05:11:24;;;;;;;9.60;3.97;;;;;;;;;;5038467;28;20222;-48
2024/01/01 05:13:52;;;;;;;6.70;3.67;;;;;;;;;;5038494;28;20785;-48
2024/01/01 05:16:18;;;;;;;9.20;4.20;;;;;;;;;;5038026;28;20204;-48
2024/01/01 05:18:44;;;;;;;8.97;4.03;;;;;;;;;;5038381;28;20207;-48
2024/01/01 05:21:10;;;;;;;9.23;3.93;;;;;;;;;;5039565;28;20200;-48
2024/01/01 05:23:36;;;;;;;8.43;4.47;;;;;;;;;;5038150;28;20226;-48
2024/01/01 05:26:02;;;;;;;6.23;4.10;;;;;;;;;;5038200;28;20650;-48
2024/01/01 05:28:29;;;;;;;5.73;4.10;;;;;;;;;;5037953;28;20631;-48
2024/01/01 05:30:56;;;;;;;7.80;3.97;;;;;;;;;;5037572;28;20295;-48
2024/01/01 05:33:22;;;;;;;8.73;4.20;;;;;;;;;;5038136;28;20196;-48
2024/01/01 05:35:48;;;;;;;8.67;4.73;;;;;;;;;;5037857;28;20242;-48
2024/01/01 05:38:14;;;;;;;5.73;3.93;;;;;;;;;;5038258;28;20204;-48
2024/01/01 05:40:42;;;;;;;9.83;4.40;;;;;;;;;;5037862;28;20188;-48
2024/01/01 05:43:08;;;;;;;9.60;4.60;;;;;;;;;;5037385;28;20228;-48
2024/01/01 05:45:34;;;;;;;6.97;3.90;;;;;;;;;;5037757;28;20679;-48
2024/01/01 05:48:01;;;;;;;8.13;3.90;;;;;;;;;;5037438;28;20232;-48
2024/01/01 05:50:28;;;;;;;7.93;4.00;;;;;;;;;;5039522;28;20208;-48
2024/01/01 05:52:54;;;;;;;4.27;3.03;;;;;;;;;;5038279;28;20271;-48
2024/01/01 05:55:20;;;;;;;7.17;3.20;;;;;;;;;;5037695;28;20295;-48
2024/01/01 05:57:46;;;;;;;7.27;3.73;;;;;;;;;;5039166;28;20738;-48
2024/01/01 06:00:13;;;;;;;6.87;3.30;;;;;;;;;;5037118;28;20774;-52
2024/01/01 06:02:39;;;;;;;6.93;3.00;;;;;;;;;;5038718;28;20642;-48
2024/01/01 06:05:06;;;;;;;5.97;3.37;;;;;;;;;;5037498;28;20196;-48
2024/01/01 06:07:32;;;;;;;3.87;2.30;;;;;;;;;;5046135;28;20679;-49
2024/01/01 06:09:58;;;;;;;4.87;2.60;;;;;;;;;;5051688;28;20299;-48
2024/01/01 06:12:24;;;;;;;4.77;2.53;;;;;;;;;;5051341;28;20202;-48
2024/01/01 06:14:50;;;;;;;4.03;3.13;;;;;;;;;;5051355;28;20192;-48
2024/01/01 06:17:16;;;;;;;6.77;3.13;;;;;;;;;;5051376;28;20244;-49
2024/01/01 06:19:42;;;;;;;4.93;2.40;;;;;;;;;;5051486;28;20200;-48
2024/01/01 06:22:10;;;;;;;6.70;2.87;;;;;;;;;;5051332;28;20235;-49
2024/01/01 06:24:36;;;;;;;5.23;2.73;;;;;;;;;;5051294;28;20200;-48
2024/01/01 06:27:02;;;;;;;4.50;2.37;;;;;;;;;;5051410;28;20204;-47
2024/01/01 06:29:28;;;;;;;4.13;2.40;;;;;;;;;;5051343;28;20204;-47
2024/01/01 06:31:54;;;;;;;10.40;3.20;;;;;;;;;;5051329;28;20228;-47
2024/01/01 06:34:20;;;;;;;6.30;2.67;;;;;;;;;;5051248;28;20220;-47
2024/01/01 06:36:46;;;;;;;4.40;2.10;;;;;;;;;;5051185;28;20200;-47
2024/01/01 06:39:14;;;;;;;6.07;2.70;;;;;;;;;;5051284;28;20246;-47
2024/01/01 06:41:40;;;;;;;4.83;2.43;;;;;;;;;;5050983;28;20246;-47
2024/01/01 06:44:06;;;;;;;5.10;2.43;;;;;;;;;;5051079;28;20611;-47
2024/01/01 06:46:32;;;;;;;7.60;2.50;;;;;;;;;;5050931;28;20244;-47
2024/01/01 06:48:59;;;;;;;4.40;1.97;;;;;;;;;;5051306;28;20204;-46
2024/01/01 06:51:25;;;;;;;6.43;2.73;;;;;;;;;;5051004;28;20193;-52
2024/01/01 06:53:51;;;;;;;8.07;2.57;;;;;;;;;;5053533;28;20709;-52
2024/01/01 06:56:18;;;;;;;3.77;2.20;;;;;;;;;;5054849;28;20200;-47
2024/01/01 06:58:44;;;;;;;4.77;2.57;;;;;;;;;;5054788;28;20670;-47
2024/01/01 07:01:10;;;;;;;6.80;2.63;;;;;;;;;;5054719;28;20200;-47
2024/01/01 07:03:36;;;;;;;11.03;2.27;;;;;;;;;;5054574;28;20235;-47
2024/01/01 07:06:02;;;;;;;7.70;2.70;;;;;;;;;;5054625;28;20596;-52
2024/01/01 07:08:29;;;;;;;5.07;2.40;;;;;;;;;;5054803;28;20200;-47
2024/01/01 07:10:55;;;;;;;4.03;2.43;;;;;;;;;;5054485;28;20207;-47
2024/01/01 07:13:22;;;;;;;5.67;2.67;;;;;;;;;;5054572;28;20431;-47
2024/01/01 07:15:48;;;;;;;5.27;2.20;;;;;;;;;;5054399;28;20216;-47
2024/01/01 07:18:16;;;;;;;5.83;2.00;;;;;;;;;;5054609;28;20220;-47
2024/01/01 07:20:42;;;;;;;7.50;2.80;;;;;;;;;;5054504;28;20235;-48
2024/01/01 07:23:08;;;;;;;5.60;2.13;;;;;;;;;;5054429;28;20256;-47
2024/01/01 07:25:34;;;;;;;6.37;2.50;;;;;;;;;;5054400;28;20196;-48
2024/01/01 07:28:00;;;;;;;5.30;2.17;;;;;;;;;;5054410;28;20200;-47
2024/01/01 07:30:28;;;;;;;5.13;2.40;;;;;;;;;;5054328;28;20200;-47
2024/01/01 07:32:55;;;;;;;3.83;2.30;;;;;;;;;;5054196;28;20780;-47
2024/01/01 07:35:21;;;;;;;5.60;2.40;;;;;;;;;;5054220;28;20431;-47
2024/01/01 07:37:47;;;;;;;5.33;2.23;;;;;;;;;;5054209;28;20273;-47
2024/01/01 07:40:13;;;;;;;6.63;2.27;;;;;;;;;;5054392;28;20199;-47
2024/01/01 07:42:39;;;;;;;8.03;2.40;;;;;;;;;;5053865;28;20235;-47
2024/01/01 07:45:05;;;;;;;6.47;2.40;;;;;;;;;;5053922;28;20200;-47
2024/01/01 07:47:32;;;;;;;5.33;2.57;;;;;;;;;;5053805;28;20232;-47
2024/01/01 07:49:58;;;;;;;9.20;2.40;;;;;;;;;;5054103;28;20204;-47
2024/01/01 07:52:24;;;;;;;8.57;2.60;;;;;;;;;;5053543;28;20681;-47
2024/01/01 07:54:57;;;;;;;5.53;2.20;;;;;;;;;;5053643;28;20196;-47
2024/01/01 07:57:23;;;;;;;6.07;2.50;;;;;;;;;;5053638;28;20664;-47
2024/01/01 07:59:49;;;;;;;8.67;2.30;;;;;;;;;;5053419;28;20199;-49
2024/01/01 08:02:15;;;;;;;5.87;2.30;;;;;;;;;;5053829;28;20248;-47
2024/01/01 08:04:43;;;;;;;8.20;2.40;;;;;;;;;;5053107;28;20204;-47
2024/01/01 08:07:09;;;;;;;9.63;2.63;;;;;;;;;;5053675;28;20620;-47
2024/01/01 08:09:35;;;;;;;9.50;2.83;;;;;;;;;;5053594;28;20246;-47
2024/01/01 08:12:01;;;;;;;7.40;2.60;;;;;;;;;;5053506;28;20568;-47
2024/01/01 08:14:27;;;;;;;5.53;2.50;;;;;;;;;;5053504;28;20196;-47
2024/01/01 08:16:53;;;;;;;6.73;2.67;;;;;;;;;;5053209;28;20266;-47
2024/01/01 08:19:19;;;;;;;9.57;2.57;;;;;;;;;;5053412;28;20203;-48
2024/01/01 08:21:47;;;;;;;8.17;2.67;;;;;;;;;;5053197;28;20233;-47
2024/01/01 08:24:13;;;;;;;8.93;2.60;;;;;;;;;;5053275;28;20274;-47
2024/01/01 08:26:39;;;;;;;6.50;2.50;;;;;;;;;;5053071;28;20304;-47
2024/01/01 08:29:05;;;;;;;9.33;2.57;;;;;;;;;;5052866;28;20739;-47
2024/01/01 08:31:31;;;;;;;10.30;2.63;;;;;;;;;;5053169;28;20222;-47
2024/01/01 08:33:57;;;;;;;7.47;2.60;;;;;;;;;;5053158;28;20722;-47
2024/01/01 08:36:23;;;;;;;8.10;2.97;;;;;;;;;;5053118;28;20196;-47
2024/01/01 08:38:50;;;;;;;10.23;2.97;;;;;;;;;;5052826;28;20200;-47
2024/01/01 08:41:16;;;;;;;7.03;3.13;;;;;;;;;;5052923;28;20196;-47
2024/01/01 08:43:42;;;;;;;6.50;2.23;;;;;;;;;;5052867;28;20274;-47
2024/01/01 08:46:08;;;;;;;13.20;3.57;;;;;;;;;;5052612;28;20231;-47
2024/01/01 08:48:35;;;;;;;6.37;2.90;;;;;;;;;;5052715;28;20235;-47
2024/01/01 08:51:02;;;;;;;9.33;3.03;;;;;;;;;;5052899;28;20231;-47
2024/01/01 08:53:28;;;;;;;7.73;3.20;;;;;;;;;;5052941;28;20223;-47
2024/01/01 08:55:55;;;;;;;7.90;3.30;;;;;;;;;;5052496;28;20659;-48
2024/01/01 08:58:21;;;;;;;8.23;2.80;;;;;;;;;;5052555;28;20567;-48
2024/01/01 09:00:47;;;;;;;11.43;2.80;;;;;;;;;;5052500;28;20200;-47
2024/01/01 09:03:13;;;;;;;12.10;3.50;;;;;;;;;;5052622;28;20297;-49
2024/01/01 09:05:39;;;;;;;15.37;3.17;;;;;;;;;;5052507;28;20204;-50
2024/01/01 09:08:05;;;;;;;9.87;3.10;;;;;;;;;;5052323;28;20239;-49
2024/01/01 09:10:31;;;;;;;15.63;4.00;;;;;;;;;;5052439;28;20208;-50
2024/01/01 09:12:59;;;;;;;7.63;3.33;;;;;;;;;;5052491;28;20560;-50
2024/01/01 09:15:25;;;;;;;14.57;3.00;;;;;;;;;;5052145;28;20693;-50
2024/01/01 09:17:51;;;;;;;11.90;3.23;;;;;;;;;;5051225;28;20220;-51
2024/01/01 09:20:17;;;;;;;10.03;3.30;;;;;;;;;;5052407;28;20196;-51
2024/01/01 09:22:42;;;;;;;11.27;3.37;;;;;;;;;;5051950;28;20212;-52
2024/01/01 09:25:09;;;;;;;11.60;3.60;;;;;;;;;;5052213;28;20283;-52
2024/01/01 09:27:35;;;;;;;7.73;2.80;;;;;;;;;;5051958;28;20254;-52
2024/01/01 09:30:02;;;;;;;11.37;3.97;;;;;;;;;;5052132;28;20197;-52
2024/01/01 09:32:28;;;;;;;13.83;3.30;;;;;;;;;;5052228;28;20271;-50
2024/01/01 09:34:54;;;;;;;12.00;3.53;;;;;;;;;;5051913;28;20210;-50
2024/01/01 09:37:20;;;;;;;10.30;3.50;;;;;;;;;;5041602;28;20196;-50
2024/01/01 09:39:46;;;;;;;11.63;4.03;;;;;;;;;;5038203;28;20781;-50
2024/01/01 09:42:12;;;;;;;6.47;3.37;;;;;;;;;;5039723;28;20667;-50
2024/01/01 09:44:38;;;;;;;11.63;3.27;;;;;;;;;;5037840;28;20204;-50
2024/01/01 09:47:06;;;;;;;9.73;3.40;;;;;;;;;;5037813;28;20243;-51
2024/01/01 09:49:32;;;;;;;10.27;3.00;;;;;;;;;;5039037;28;20208;-50
2024/01/01 09:51:58;;;;;;;8.57;2.80;;;;;;;;;;5037895;28;20258;-50
2024/01/01 09:54:25;;;;;;;9.03;3.30;;;;;;;;;;5039519;28;20192;-50
2024/01/01 09:56:51;;;;;;;11.37;3.53;;;;;;;;;;5037762;28;20200;-50
2024/01/01 09:59:32;;;;;;;11.53;3.20;;;;;;;;;;5039147;28;20200;-50
2024/01/01 10:02:02;;;;;;;8.77;2.80;;;;;;;;;;5038870;28;20223;-50
2024/01/01 10:04:30;;;;;;;9.27;3.10;;;;;;;;;;5037995;28;20200;-51
2024/01/01 10:06:56;;;;;;;7.57;2.93;;;;;;;;;;5037608;28;20762;-50
2024/01/01 10:09:22;;;;;;;9.00;2.70;;;;;;;;;;5039324;28;20295;-51
2024/01/01 10:11:48;;;;;;;9.50;3.10;;;;;;;;;;5039321;28;20203;-51
2024/01/01 10:14:15;;;;;;;7.87;2.83;;;;;;;;;;5037904;28;20192;-49
2024/01/01 10:16:41;;;;;;;10.57;3.13;;;;;;;;;;5039362;28;20277;-49
2024/01/01 10:19:07;;;;;;;10.37;3.33;;;;;;;;;;5039085;28;20605;-51
2024/01/01 10:21:35;;;;;;;9.67;2.73;;;;;;;;;;5039207;28;20196;-50
2024/01/01 10:24:15;;;;;;;8.30;2.97;;;;;;;;;;5037558;28;20232;-50
2024/01/01 10:26:42;;;;;;;13.07;3.07;;;;;;;;;;5042530;28;20196;-50
2024/01/01 10:29:11;;;;;;;10.47;3.20;;;;;;;;;;5054760;28;20565;-50
2024/01/01 10:31:38;;;;;;;10.73;2.97;;;;;;;;;;5055540;28;20196;-50
2024/01/01 10:34:04;;;;;;;4.97;2.17;;;;;;;;;;5055615;28;20188;-50
2024/01/01 10:36:30;;;;;;;6.50;2.33;;;;;;;;;;5055536;28;20282;-50
2024/01/01 10:38:58;;;;;;;5.20;2.37;;;;;;;;;;5055264;28;20557;-50
2024/01/01 10:41:24;;;;;;;6.73;2.83;;;;;;;;;;5055242;28;20749;-50
2024/01/01 10:43:51;;;;;;;5.37;2.73;;;;;;;;;;5055188;28;20232;-50
2024/01/01 10:46:18;;;;;;;5.43;2.87;;;;;;;;;;5055057;28;20350;-50
2024/01/01 10:48:46;;;;;;;8.97;2.50;;;;;;;;;;5055368;28;20192;-50
2024/01/01 10:51:22;;;;;;;5.87;2.67;;;;;;;;;;5052971;28;20204;-51
2024/01/01 10:54:15;;;;;;;3.83;2.40;;;;;;;;;;5051097;28;20188;-51
2024/01/01 10:56:47;;;;;;;4.83;2.47;;;;;;;;;;5030133;28;20235;-49
2024/01/01 10:59:18;;;;;;;4.43;2.30;;;;;;;;;;5055252;28;20200;-50
2024/01/01 11:01:45;;;;;;;7.03;2.40;;;;;;;;;;5054872;28;20250;-50
2024/01/01 11:04:12;;;;;;;5.50;2.60;;;;;;;;;;5054961;28;20224;-50
2024/01/01 11:06:43;;;;;;;2.97;2.17;;;;;;;;;;5054750;28;20234;-51
2024/01/01 11:09:27;;;;;;;7.40;2.17;;;;;;;;;;5054660;28;20207;-49
2024/01/01 11:11:55;;;;;;;6.10;2.73;;;;;;;;;;5054650;28;20191;-51
2024/01/01 11:14:23;;;;;;;8.60;2.93;;;;;;;;;;5054543;28;20223;-52
2024/01/01 11:16:53;;;;;;;4.37;2.40;;;;;;;;;;5054375;28;20220;-52
2024/01/01 11:19:37;;;;;;;7.23;3.33;;;;;;;;;;5054577;28;20658;-51
2024/01/01 11:22:29;;;;;;;9.80;4.00;;;;;;;;;;5054375;28;20196;-51
2024/01/01 11:24:55;;;;;;;9.90;4.00;;;;;;;;;;5054452;28;20680;-50
2024/01/01 11:27:26;;;;;;;9.67;5.00;;;;;;;;;;5054424;28;20732;-51
2024/01/01 11:29:52;;;;;;;7.20;4.30;;;;;;;;;;5054152;28;20265;-51
2024/01/01 11:32:18;;;;;;;11.37;5.67;;;;;;;;;;5054653;28;20196;-51
2024/01/01 11:34:44;;;;;;;10.57;5.30;;;;;;;;;;5054472;28;20197;-51
2024/01/01 11:37:19;;;;;;;10.00;5.50;;;;;;;;;;5054139;28;20200;-51
2024/01/01 11:39:56;;;;;;;7.73;3.77;;;;;;;;;;5053264;28;20665;-50
2024/01/01 11:42:22;;;;;;;8.37;3.43;;;;;;;;;;5054251;28;20200;-51
2024/01/01 11:44:49;;;;;;;12.00;4.50;;;;;;;;;;5054165;28;20640;-50
2024/01/01 11:47:17;;;;;;;5.10;2.50;;;;;;;;;;5053833;28;20240;-50
2024/01/01 11:49:43;;;;;;;11.33;5.57;;;;;;;;;;5053957;28;20541;-51
2024/01/01 11:52:11;;;;;;;6.30;3.57;;;;;;;;;;5053950;28;20196;-51
2024/01/01 11:54:38;;;;;;;8.30;3.57;;;;;;;;;;5053851;28;20214;-50
2024/01/01 11:57:04;;;;;;;6.50;2.80;;;;;;;;;;5041547;28;20219;-49
2024/01/01 11:59:30;;;;;;;10.40;5.00;;;;;;;;;;5039959;28;20200;-50
2024/01/01 12:01:58;;;;;;;6.97;3.60;;;;;;;;;;5039800;28;20246;-49
2024/01/01 12:04:25;;;;;;;8.07;3.10;;;;;;;;;;5039827;28;20231;-49
2024/01/01 12:06:51;;;;;;;9.33;6.23;;;;;;;;;;5038496;28;20203;-50
2024/01/01 12:09:18;;;;;;;5.00;2.90;;;;;;;;;;5041740;28;20254;-49
2024/01/01 12:11:44;;;;;;;6.47;3.03;;;;;;;;;;5040915;28;20235;-49
2024/01/01 12:14:10;;;;;;;6.50;4.53;;;;;;;;;;5039912;28;20192;-49
2024/01/01 12:16:38;;;;;;;7.83;3.20;;;;;;;;;;5040526;28;20290;-50
2024/01/01 12:19:06;;;;;;;5.17;2.63;;;;;;;;;;5043025;28;20207;-50
2024/01/01 12:21:39;;;;;;;5.47;2.90;;;;;;;;;;5039754;28;20200;-51
2024/01/01 12:24:06;;;;;;;5.53;3.00;;;;;;;;;;5039184;28;20256;-50
2024/01/01 12:26:33;;;;;;;5.70;2.80;;;;;;;;;;5042555;28;20279;-51
2024/01/01 12:29:07;;;;;;;6.57;4.13;;;;;;;;;;5039593;28;20205;-50
2024/01/01 12:31:33;;;;;;;6.23;3.07;;;;;;;;;;5040572;28;20302;-51
2024/01/01 12:33:59;;;;;;;7.10;3.63;;;;;;;;;;5039506;28;20203;-50
2024/01/01 12:36:26;;;;;;;4.67;2.93;;;;;;;;;;5040917;28;20208;-51
2024/01/01 12:38:52;;;;;;;6.10;2.80;;;;;;;;;;5040377;28;20269;-50
2024/01/01 12:41:20;;;;;;;8.03;2.93;;;;;;;;;;5047818;28;20654;-51
2024/01/01 12:43:46;;;;;;;7.10;3.63;;;;;;;;;;5053069;28;20224;-50
2024/01/01 12:46:13;;;;;;;4.67;2.57;;;;;;;;;;5052874;28;20204;-51
2024/01/01 12:48:42;;;;;;;7.40;3.03;;;;;;;;;;5052881;28;20654;-51
2024/01/01 12:51:08;;;;;;;8.03;3.20;;;;;;;;;;5052695;28;20215;-51
2024/01/01 12:53:36;;;;;;;5.73;2.63;;;;;;;;;;5052875;28;20200;-52
2024/01/01 12:56:03;;;;;;;5.03;2.63;;;;;;;;;;5052575;28;20281;-51
2024/01/01 12:58:30;;;;;;;7.23;2.70;;;;;;;;;;5052870;28;20228;-51
2024/01/01 13:00:56;;;;;;;7.77;2.70;;;;;;;;;;5052526;28;20712;-51
2024/01/01 13:03:22;;;;;;;7.13;2.60;;;;;;;;;;5052551;28;20228;-51
2024/01/01 13:05:48;;;;;;;8.63;2.60;;;;;;;;;;5052447;28;20212;-50
2024/01/01 13:08:14;;;;;;;6.87;3.13;;;;;;;;;;5052497;28;20704;-50
2024/01/01 13:10:42;;;;;;;8.93;4.40;;;;;;;;;;5052456;28;20200;-51
2024/01/01 13:13:08;;;;;;;15.70;6.97;;;;;;;;;;5052351;28;20197;-50
2024/01/01 13:15:38;;;;;;;5.60;2.93;;;;;;;;;;5052636;28;20202;-52
2024/01/01 13:18:04;;;;;;;6.97;3.90;;;;;;;;;;5052480;28;20259;-51
2024/01/01 13:20:30;;;;;;;6.80;3.30;;;;;;;;;;5052462;28;20274;-52
2024/01/01 13:22:57;;;;;;;4.13;2.83;;;;;;;;;;5052177;28;20307;-51
2024/01/01 13:25:24;;;;;;;4.47;2.17;;;;;;;;;;5052149;28;20200;-51
2024/01/01 13:27:51;;;;;;;3.63;2.47;;;;;;;;;;5051842;28;20697;-51
2024/01/01 13:30:17;;;;;;;4.83;2.70;;;;;;;;;;5052217;28;20227;-52
2024/01/01 13:32:43;;;;;;;4.13;2.60;;;;;;;;;;5051994;28;20682;-51
2024/01/01 13:35:10;;;;;;;8.00;4.30;;;;;;;;;;5052033;28;20200;-52
2024/01/01 13:37:37;;;;;;;4.43;2.40;;;;;;;;;;5050130;28;20231;-51
2024/01/01 13:40:03;;;;;;;5.47;3.27;;;;;;;;;;5051862;28;20242;-51
2024/01/01 13:42:29;;;;;;;5.57;4.40;;;;;;;;;;5052051;28;20196;-50
2024/01/01 13:44:57;;;;;;;4.57;2.97;;;;;;;;;;5051743;28;20180;-51
2024/01/01 13:47:23;;;;;;;5.87;3.10;;;;;;;;;;5051554;28;20224;-50
2024/01/01 13:49:49;;;;;;;4.73;2.30;;;;;;;;;;5051433;28;20303;-51
2024/01/01 13:52:15;;;;;;;5.60;2.33;;;;;;;;;;5049759;28;20263;-52
2024/01/01 13:54:41;;;;;;;4.50;2.57;;;;;;;;;;5051351;28;20207;-52
2024/01/01 13:57:07;;;;;;;3.07;2.30;;;;;;;;;;5051005;28;20674;-51
2024/01/01 13:59:33;;;;;;;6.33;2.70;;;;;;;;;;5051505;28;20203;-51
2024/01/01 14:02:03;;;;;;;5.00;2.87;;;;;;;;;;5051213;28;20200;-52
2024/01/01 14:04:30;;;;;;;4.60;2.50;;;;;;;;;;5051375;28;20230;-52
2024/01/01 14:06:56;;;;;;;2.60;1.87;;;;;;;;;;5051307;28;20279;-51
2024/01/01 14:09:22;;;;;;;6.20;2.40;;;;;;;;;;5051335;28;20663;-51
2024/01/01 14:11:49;;;;;;;4.70;1.93;;;;;;;;;;5051131;28;20207;-51
2024/01/01 14:14:16;;;;;;;3.17;2.17;;;;;;;;;;5049942;28;20192;-52
2024/01/01 14:16:43;;;;;;;2.77;1.80;;;;;;;;;;5051223;28;20286;-52
2024/01/01 14:19:10;;;;;;;5.60;2.30;;;;;;;;;;5051052;28;20212;-52
2024/01/01 14:21:36;;;;;;;3.63;1.90;;;;;;;;;;5051208;28;20291;-52
2024/01/01 14:24:03;;;;;;;5.37;2.40;;;;;;;;;;5069757;28;20326;-51
2024/01/01 14:26:29;;;;;;;6.67;2.10;;;;;;;;;;5071063;28;20252;-51
2024/01/01 14:28:54;;;;;;;5.37;2.30;;;;;;;;;;5054130;28;20196;-53
2024/01/01 14:31:20;;;;;;;4.00;1.80;;;;;;;;;;5051242;28;20220;-51
2024/01/01 14:33:46;;;;;;;4.17;2.00;;;;;;;;;;5051212;28;20678;-50
2024/01/01 14:36:15;;;;;;;5.20;2.47;;;;;;;;;;5050816;28;20246;-50
2024/01/01 14:38:41;;;;;;;5.20;2.33;;;;;;;;;;5051339;28;20234;-50